createdAt,value
2022-08-20T00:08:36.135Z,97869.56
2022-08-20T00:18:39.785Z,97872.97
2022-08-20T00:28:42.202Z,97875.88
2022-08-20T00:38:47.053Z,97874.56
2022-08-20T00:48:52.681Z,97879.00
2022-08-20T00:58:55.522Z,97875.91
2022-08-20T01:08:58.988Z,97876.00
2022-08-20T01:19:03.050Z,97884.66
2022-08-20T01:29:30.445Z,97892.53
2022-08-20T01:39:36.216Z,97897.00
2022-08-20T01:49:44.430Z,97897.13
2022-08-20T01:59:50.432Z,97895.00
2022-08-20T02:09:53.085Z,97898.63
2022-08-20T02:20:02.087Z,97899.66
2022-08-20T02:30:11.409Z,97882.06
2022-08-20T02:40:30.979Z,97886.62
2022-08-20T02:50:33.917Z,97888.97
2022-08-20T03:00:38.150Z,97888.38
2022-08-20T03:10:44.255Z,97868.34
2022-08-20T03:20:47.583Z,97869.38
2022-08-20T03:30:56.991Z,97868.97
2022-08-20T03:40:59.624Z,97877.06
2022-08-20T03:51:02.891Z,97874.22
2022-08-20T04:01:07.211Z,97857.25
2022-08-20T04:11:10.113Z,97879.38
2022-08-20T04:21:12.491Z,97876.66
2022-08-20T04:31:14.856Z,97885.16
2022-08-20T04:41:21.091Z,97897.56
2022-08-20T04:51:26.870Z,97902.22
2022-08-20T05:01:30.331Z,97904.13
2022-08-20T05:11:36.697Z,97919.53
2022-08-20T05:21:41.094Z,97925.19
2022-08-20T05:31:44.235Z,97926.00
2022-08-20T05:41:49.803Z,97917.50
2022-08-20T05:51:52.706Z,97943.19
2022-08-20T06:01:55.434Z,97941.16
2022-08-20T06:11:59.826Z,97952.19
2022-08-20T06:22:17.296Z,97957.56
2022-08-20T06:32:31.993Z,97959.03
2022-08-20T06:42:36.977Z,97966.13
2022-08-20T06:52:52.535Z,97970.34
2022-08-20T07:02:56.103Z,97972.59
2022-08-20T07:13:00.511Z,97978.97
2022-08-20T07:23:03.342Z,97979.94
2022-08-20T07:33:07.000Z,97989.66
2022-08-20T07:43:11.185Z,98000.84
2022-08-20T07:53:14.423Z,97994.06
2022-08-20T08:03:17.059Z,98011.44
2022-08-20T08:13:19.994Z,98011.16
2022-08-20T08:23:31.749Z,98011.97
2022-08-20T08:33:35.168Z,98008.06
2022-08-20T08:43:38.115Z,98019.63
2022-08-20T08:53:53.749Z,98016.91
2022-08-20T09:03:56.553Z,98022.66
2022-08-20T09:13:59.817Z,98019.47
2022-08-20T09:24:03.307Z,98010.88
2022-08-20T09:34:06.965Z,98016.78
2022-08-20T09:44:10.008Z,98011.69
2022-08-20T09:54:13.157Z,98008.41
2022-08-20T10:04:16.683Z,98011.63
2022-08-20T10:14:19.785Z,98001.25
2022-08-20T10:24:23.549Z,98003.66
2022-08-20T10:34:26.624Z,98002.19
2022-08-20T10:44:29.538Z,98005.44
2022-08-20T10:54:32.239Z,97983.03
2022-08-20T11:04:35.989Z,97996.34
2022-08-20T11:14:39.567Z,97989.63
2022-08-20T11:24:42.088Z,97993.06
2022-08-20T11:34:49.966Z,97994.88
2022-08-20T11:44:53.260Z,97984.56
2022-08-20T11:54:57.067Z,97976.88
2022-08-20T12:05:01.335Z,97972.91
2022-08-20T12:15:05.716Z,97971.63
2022-08-20T12:25:09.170Z,97971.44
2022-08-20T12:35:13.409Z,97961.62
2022-08-20T12:45:18.188Z,97952.56
2022-08-20T12:55:21.336Z,97953.28
2022-08-20T13:05:25.575Z,97944.25
2022-08-20T13:15:29.585Z,97940.41
2022-08-20T13:25:33.133Z,97940.78
2022-08-20T13:35:38.153Z,97943.25
2022-08-20T13:45:42.230Z,97930.78
2022-08-20T13:55:45.843Z,97928.22
2022-08-20T14:05:48.952Z,97929.31
2022-08-20T14:15:52.732Z,97939.72
2022-08-20T14:25:55.528Z,97941.53
2022-08-20T14:35:58.934Z,97920.28
2022-08-20T14:46:01.880Z,97936.31
2022-08-20T14:56:05.273Z,97928.13
2022-08-20T15:06:18.620Z,97923.38
2022-08-20T15:16:25.594Z,97930.78
2022-08-20T15:26:32.395Z,97913.72
2022-08-20T15:36:34.890Z,97910.00
2022-08-20T15:46:39.571Z,97897.19
2022-08-20T15:57:03.272Z,97884.69
2022-08-20T16:07:16.393Z,97880.34
2022-08-20T16:17:33.725Z,97890.09
2022-08-20T16:28:01.276Z,97889.22
2022-08-20T16:38:34.558Z,97900.41
2022-08-20T16:48:42.574Z,97906.03
2022-08-20T16:58:47.221Z,97922.41
2022-08-20T17:08:51.305Z,97913.59
2022-08-20T17:19:09.685Z,97914.56
2022-08-20T17:29:36.927Z,97902.63
2022-08-20T17:39:53.110Z,97900.97
2022-08-20T17:50:04.698Z,97910.59
2022-08-20T18:00:24.833Z,97922.94
2022-08-20T18:10:31.217Z,97922.25
2022-08-20T18:20:55.129Z,97913.31
2022-08-20T18:31:03.753Z,97923.84
2022-08-20T18:41:30.814Z,97923.53
2022-08-20T18:51:44.768Z,97925.75
2022-08-20T19:01:51.369Z,97939.06
2022-08-20T19:12:07.059Z,97940.88
2022-08-20T19:22:22.565Z,97941.28
2022-08-20T19:32:32.260Z,97945.66
2022-08-20T19:42:49.458Z,97944.25
2022-08-20T19:53:38.949Z,97947.81
2022-08-20T20:03:58.334Z,97951.59
2022-08-20T20:14:27.184Z,97955.38
2022-08-20T20:24:47.700Z,97953.63
2022-08-20T20:35:00.156Z,97949.13
2022-08-20T20:45:31.161Z,97951.88
2022-08-20T20:55:37.832Z,97957.75
2022-08-20T21:05:41.146Z,97948.66
2022-08-20T21:15:47.472Z,97948.44
2022-08-20T21:26:06.786Z,97956.34
2022-08-20T21:36:16.594Z,97960.97
2022-08-20T21:46:37.228Z,97969.44
2022-08-20T21:56:55.401Z,97970.22
2022-08-20T22:17:23.336Z,97955.59
2022-08-20T22:27:29.722Z,97962.44
2022-08-20T22:37:40.574Z,97955.78
2022-08-20T22:47:49.263Z,97950.59
2022-08-20T22:57:57.080Z,97954.28
2022-08-20T23:08:05.589Z,97953.63
2022-08-20T23:18:14.549Z,97954.16
2022-08-20T23:28:42.735Z,97936.03
2022-08-20T23:38:49.460Z,97942.78
2022-08-20T23:48:53.885Z,97944.25
